Duntocher, United Kingdom
Current Conditions -  °F | °C
As of 7:50 AM on Sunday 26 Oct 2014 (Local Time) from EGPF Reporting Station
Broken Clouds Broken Clouds  
Wind Chill: 54°   Ceiling: 1600
Heat Index: 54°   Visibility: 6mi
Dew Point: 48°   Wind: 26mph
Humidity: 82%   Direction: 230°SW
Pressure: 29.68"   Gusts: NA
Location:  55.92°N, 4.42°W
Report Text: EGPF 260650Z AUTO 23023KT 9999 BKN016/// //////TCU 12/09 Q1005
Loading
Personal Weather Stations






























Interactive Weather Map
Tropical Storm Tracking
New forecast layout! Learn more

10-Day Weather Forecast

Advertisements
Track Severe Weather on mobile